Time;durP1;ratioP1;P1;durP2;ratioP2;P2;SDS_P1;SDS_P2;PMS_P1;PMS_P2;Temp;Humidity;BMP_temperature;BMP_pressure;BME280_temperature;BME280_humidity;BME280_pressure;Samples;Min_cycle;Max_cycle;Signal;HPM_P1;HPM_P2
2022/03/04 00:01:56;;;;;;;41.75;15.90;;;;;;;-2.59;100.00;100673.50;5074046;28;20027;-88
2022/03/04 00:04:22;;;;;;;49.38;17.05;;;;;;;-2.66;100.00;100668.94;5073998;28;20111;-87
2022/03/04 00:06:47;;;;;;;42.67;17.83;;;;;;;-2.63;100.00;100662.91;5074177;28;20020;-87
2022/03/04 00:09:13;;;;;;;46.30;18.05;;;;;;;-2.66;100.00;100679.38;5075387;28;20032;-86
2022/03/04 00:11:38;;;;;;;53.85;18.58;;;;;;;-2.66;100.00;100679.38;5073707;28;20025;-87
2022/03/04 00:14:04;;;;;;;51.42;18.63;;;;;;;-2.65;100.00;100675.03;5073816;28;20028;-87
2022/03/04 00:16:29;;;;;;;54.03;18.65;;;;;;;-2.66;100.00;100673.28;5075203;28;20028;-87
2022/03/04 00:19:07;;;;;;;53.03;19.75;;;;;;;-2.67;100.00;100672.38;5075220;28;20026;-87
2022/03/04 00:21:34;;;;;;;48.17;18.42;;;;;;;-2.67;100.00;100681.94;5073712;28;20115;-88
2022/03/04 00:24:00;;;;;;;48.50;19.23;;;;;;;-2.67;100.00;100682.84;5075254;28;20028;-87
2022/03/04 00:26:25;;;;;;;55.47;18.73;;;;;;;-2.66;100.00;100684.63;5075096;28;20025;-86
2022/03/04 00:28:51;;;;;;;45.35;18.30;;;;;;;-2.67;100.00;100687.16;5074944;28;20031;-87
2022/03/04 00:31:16;;;;;;;50.33;17.00;;;;;;;-2.72;100.00;100689.66;5073374;28;20025;-88
2022/03/04 00:33:41;;;;;;;47.83;16.75;;;;;;;-2.75;100.00;100690.44;5073531;28;20400;-88
2022/03/04 00:36:07;;;;;;;47.75;16.55;;;;;;;-2.76;100.00;100687.78;5074897;28;20106;-87
2022/03/04 00:38:32;;;;;;;42.28;16.92;;;;;;;-2.78;100.00;100686.84;5074544;28;20123;-87
2022/03/04 00:40:58;;;;;;;46.72;17.33;;;;;;;-2.77;100.00;100691.22;5074872;28;20069;-87
2022/03/04 00:43:24;;;;;;;49.15;17.45;;;;;;;-2.83;100.00;100692.81;5073527;28;20020;-87
2022/03/04 00:45:50;;;;;;;48.60;17.02;;;;;;;-2.86;100.00;100689.22;5074254;28;20030;-88
2022/03/04 00:48:16;;;;;;;47.65;16.88;;;;;;;-2.85;100.00;100697.09;5073553;28;20020;-87
2022/03/04 00:50:41;;;;;;;45.53;17.42;;;;;;;-2.82;100.00;100698.94;5073907;28;20518;-86
2022/03/04 00:53:06;;;;;;;54.60;17.98;;;;;;;-2.87;100.00;100705.75;5073212;28;20077;-88
2022/03/04 00:55:36;;;;;;;51.92;17.63;;;;;;;-2.85;100.00;100710.19;5074637;28;20473;-87
2022/03/04 00:58:01;;;;;;;51.00;17.10;;;;;;;-2.89;100.00;100712.66;5073153;28;20042;-86
2022/03/04 01:00:27;;;;;;;55.10;18.40;;;;;;;-2.89;100.00;100708.31;5073149;28;20441;-87
2022/03/04 01:02:52;;;;;;;51.72;18.48;;;;;;;-2.95;100.00;100702.88;5074317;28;20036;-84
2022/03/04 01:05:17;;;;;;;56.40;18.05;;;;;;;-2.98;100.00;100695.81;5072250;28;20020;-87
2022/03/04 01:07:44;;;;;;;54.17;19.63;;;;;;;-2.97;100.00;100710.69;5073953;28;20032;-86
2022/03/04 01:10:10;;;;;;;53.10;19.48;;;;;;;-3.01;100.00;100703.56;5072576;28;20028;-86
2022/03/04 01:12:35;;;;;;;53.80;19.25;;;;;;;-3.00;100.00;100715.78;5072638;28;20017;-87
2022/03/04 01:15:00;;;;;;;49.92;18.95;;;;;;;-3.06;100.00;100706.03;5072612;28;20558;-87
2022/03/04 01:17:26;;;;;;;56.70;20.50;;;;;;;-3.08;100.00;100686.81;5074085;28;20027;-86
2022/03/04 01:19:51;;;;;;;63.33;21.15;;;;;;;-3.07;100.00;100698.16;5073473;28;20017;-87
2022/03/04 01:22:16;;;;;;;63.63;20.05;;;;;;;-3.06;100.00;100702.50;5073807;28;20035;-87
2022/03/04 01:24:42;;;;;;;64.10;21.55;;;;;;;-3.12;100.00;100704.94;5073999;28;20537;-87
2022/03/04 01:27:07;;;;;;;71.05;22.17;;;;;;;-3.10;100.00;100709.38;5073498;28;20620;-87
2022/03/04 01:29:32;;;;;;;67.47;21.85;;;;;;;-3.13;100.00;100704.06;5074674;28;20024;-87
2022/03/04 01:31:57;;;;;;;67.13;23.70;;;;;;;-3.12;100.00;100716.28;5072840;28;20430;-87
2022/03/04 01:34:23;;;;;;;69.30;20.95;;;;;;;-3.12;100.00;100710.16;5075450;28;20589;-87
2022/03/04 01:36:48;;;;;;;64.78;22.02;;;;;;;-3.15;100.00;100705.72;5073297;28;20020;-87
2022/03/04 01:39:13;;;;;;;59.40;21.67;;;;;;;-3.14;100.00;100712.72;5072762;28;20440;-86
2022/03/04 01:41:39;;;;;;;64.80;21.63;;;;;;;-3.18;100.00;100705.63;5072691;28;20027;-87
2022/03/04 01:44:04;;;;;;;62.03;21.80;;;;;;;-3.17;100.00;100707.41;5072363;28;20028;-87
2022/03/04 01:46:30;;;;;;;67.72;23.20;;;;;;;-3.20;100.00;100709.91;5073891;28;20028;-86
2022/03/04 01:48:56;;;;;;;65.78;22.52;;;;;;;-3.20;100.00;100710.81;5073787;28;20107;-86
2022/03/04 01:51:21;;;;;;;66.68;21.38;;;;;;;-3.20;100.00;100709.91;5072316;28;20020;-86
2022/03/04 01:53:47;;;;;;;64.28;22.73;;;;;;;-3.19;100.00;100706.44;5073950;28;20016;-87
2022/03/04 01:56:13;;;;;;;71.22;22.50;;;;;;;-3.22;100.00;100712.47;5073706;28;20082;-85
2022/03/04 01:58:38;;;;;;;64.57;21.65;;;;;;;-3.15;100.00;100718.78;5072273;28;20028;-86
2022/03/04 02:01:04;;;;;;;66.85;23.63;;;;;;;-3.17;100.00;100717.88;5072886;28;20020;-86
2022/03/04 02:03:30;;;;;;;75.05;23.13;;;;;;;-3.20;100.00;100708.19;5073905;28;20020;-86
2022/03/04 02:05:55;;;;;;;60.67;21.83;;;;;;;-3.24;100.00;100714.13;5073647;28;20031;-86
2022/03/04 02:08:20;;;;;;;69.35;24.58;;;;;;;-3.27;100.00;100717.53;5073737;28;20075;-87
2022/03/04 02:10:46;;;;;;;75.85;23.50;;;;;;;-3.28;100.00;100709.66;5078899;28;20056;-87
2022/03/04 02:13:11;;;;;;;76.93;23.55;;;;;;;-3.26;100.00;100713.19;5076088;28;20447;-87
2022/03/04 02:15:36;;;;;;;65.65;22.20;;;;;;;-3.29;100.00;100706.16;5072495;28;20094;-87
2022/03/04 02:18:17;;;;;;;74.35;24.63;;;;;;;-3.31;100.00;100705.22;5076504;28;20107;-88
2022/03/04 02:20:46;;;;;;;68.90;23.05;;;;;;;-3.38;100.00;100708.47;5076606;28;20039;-87
2022/03/04 02:23:14;;;;;;;74.45;23.42;;;;;;;-3.34;100.00;100701.59;5077676;28;20024;-87
2022/03/04 02:25:42;;;;;;;65.50;23.63;;;;;;;-3.35;100.00;100703.34;5076051;28;20028;-87
2022/03/04 02:28:07;;;;;;;76.50;25.08;;;;;;;-3.38;100.00;100698.91;5077163;28;20070;-87
2022/03/04 02:30:33;;;;;;;69.32;22.23;;;;;;;-3.39;100.00;100693.63;5076163;28;20024;-86
2022/03/04 02:33:00;;;;;;;70.78;23.40;;;;;;;-3.46;100.00;100694.25;5077332;28;20023;-87
2022/03/04 02:35:27;;;;;;;71.47;22.50;;;;;;;-3.47;100.00;100693.34;5075793;28;20024;-87
2022/03/04 02:37:52;;;;;;;76.90;23.73;;;;;;;-3.50;100.00;100688.91;5075951;28;20032;-85
2022/03/04 02:40:18;;;;;;;84.20;23.85;;;;;;;-3.50;100.00;100699.34;5075991;28;20013;-84
2022/03/04 02:42:43;;;;;;;76.40;24.50;;;;;;;-3.50;100.00;100701.06;5077153;28;20481;-86
2022/03/04 02:45:09;;;;;;;74.13;22.95;;;;;;;-3.52;100.00;100695.81;5075584;28;20149;-87
2022/03/04 02:47:34;;;;;;;68.20;21.77;;;;;;;-3.51;100.00;100707.16;5075579;28;20031;-86
2022/03/04 02:49:59;;;;;;;76.10;22.55;;;;;;;-3.50;100.00;100699.34;5075955;28;20109;-86
2022/03/04 02:52:24;;;;;;;60.15;20.65;;;;;;;-3.56;100.00;100699.16;5076479;28;20024;-87
2022/03/04 02:54:50;;;;;;;67.13;22.42;;;;;;;-3.53;100.00;100694.03;5080489;28;20532;-86
2022/03/04 02:57:15;;;;;;;68.85;21.77;;;;;;;-3.59;100.00;100692.09;5075705;28;20028;-86
2022/03/04 02:59:40;;;;;;;70.47;22.55;;;;;;;-3.58;100.00;100695.59;5076844;28;20527;-86
2022/03/04 03:02:06;;;;;;;65.03;20.42;;;;;;;-3.59;100.00;100691.22;5076765;28;20032;-84
2022/03/04 03:04:31;;;;;;;61.80;19.85;;;;;;;-3.54;100.00;100692.25;5075099;28;20023;-86
2022/03/04 03:06:57;;;;;;;63.85;19.50;;;;;;;-3.56;100.00;100700.88;5075164;28;20432;-87
2022/03/04 03:09:23;;;;;;;61.75;18.55;;;;;;;-3.63;100.00;100702.38;5075115;28;20029;-86
2022/03/04 03:11:48;;;;;;;65.22;21.15;;;;;;;-3.64;100.00;100705.81;5076437;28;20026;-86
2022/03/04 03:14:13;;;;;;;68.90;20.33;;;;;;;-3.65;100.00;100704.03;5077380;28;20099;-86
2022/03/04 03:16:39;;;;;;;71.13;21.90;;;;;;;-3.65;100.00;100704.03;5076812;28;20461;-86
2022/03/04 03:19:04;;;;;;;62.28;19.60;;;;;;;-3.62;100.00;100705.03;5074994;28;20051;-86
2022/03/04 03:21:29;;;;;;;71.40;21.75;;;;;;;-3.59;100.00;100701.66;5076264;28;20473;-87
2022/03/04 03:23:54;;;;;;;65.20;20.00;;;;;;;-3.60;100.00;100702.47;5076401;28;20028;-85
2022/03/04 03:26:20;;;;;;;71.90;21.38;;;;;;;-3.60;100.00;100705.97;5074668;28;20031;-85
2022/03/04 03:28:45;;;;;;;70.57;21.80;;;;;;;-3.54;100.00;100710.53;5074064;28;20031;-87
2022/03/04 03:31:10;;;;;;;82.22;24.35;;;;;;;-3.53;100.00;100716.66;5074746;28;20033;-86
2022/03/04 03:33:37;;;;;;;75.20;21.35;;;;;;;-3.48;100.00;100718.56;5075310;28;20526;-86
2022/03/04 03:36:04;;;;;;;77.22;21.65;;;;;;;-3.46;100.00;100715.13;5074758;28;20027;-86
2022/03/04 03:38:29;;;;;;;73.43;22.45;;;;;;;-3.45;100.00;100719.53;5074515;28;20042;-86
2022/03/04 03:40:54;;;;;;;71.60;22.30;;;;;;;-3.43;100.00;100716.13;5075631;28;20089;-85
2022/03/04 03:43:20;;;;;;;77.78;21.65;;;;;;;-3.41;100.00;100714.47;5074439;28;20029;-86
2022/03/04 03:45:45;;;;;;;76.95;22.65;;;;;;;-3.41;100.00;100713.56;5074497;28;20027;-86
2022/03/04 03:48:10;;;;;;;80.20;23.27;;;;;;;-3.36;100.00;100719.84;5074409;28;20039;-86
2022/03/04 03:50:38;;;;;;;77.80;22.25;;;;;;;-3.33;100.00;100730.41;5075695;28;20020;-85
2022/03/04 03:53:04;;;;;;;76.60;21.85;;;;;;;-3.31;100.00;100731.34;5074293;28;20039;-86
2022/03/04 03:55:29;;;;;;;75.72;21.95;;;;;;;-3.33;100.00;100732.13;5075577;28;20020;-86
2022/03/04 03:57:54;;;;;;;71.70;20.63;;;;;;;-3.31;100.00;100728.72;5074236;28;20028;-85
2022/03/04 04:00:19;;;;;;;66.03;19.85;;;;;;;-3.30;100.00;100740.94;5074136;28;20460;-85
2022/03/04 04:02:45;;;;;;;67.68;20.77;;;;;;;-3.27;100.00;100741.03;5075464;28;20495;-86
2022/03/04 04:05:13;;;;;;;67.05;19.38;;;;;;;-3.25;100.00;100744.59;5075656;28;20020;-85
2022/03/04 04:07:39;;;;;;;67.22;20.38;;;;;;;-3.23;100.00;100738.53;5074087;28;20035;-84
2022/03/04 04:10:04;;;;;;;59.65;19.58;;;;;;;-3.21;100.00;100742.09;5075394;28;20024;-86
2022/03/04 04:12:30;;;;;;;58.70;17.92;;;;;;;-3.22;100.00;100745.56;5074036;28;20055;-86
2022/03/04 04:14:55;;;;;;;57.50;18.83;;;;;;;-3.20;100.00;100741.25;5074011;28;20044;-86
2022/03/04 04:17:21;;;;;;;54.53;17.38;;;;;;;-3.21;100.00;100736.84;5075492;28;20120;-86
2022/03/04 04:19:46;;;;;;;52.38;17.25;;;;;;;-3.27;100.00;100737.53;5075215;28;20024;-86
2022/03/04 04:22:11;;;;;;;55.65;17.15;;;;;;;-3.25;100.00;100743.72;5074873;28;20425;-85
2022/03/04 04:24:36;;;;;;;46.92;15.77;;;;;;;-3.26;100.00;100749.78;5075075;28;20020;-86
2022/03/04 04:27:02;;;;;;;54.05;16.80;;;;;;;-3.23;100.00;100746.38;5075117;28;20040;-86
2022/03/04 04:29:27;;;;;;;48.78;16.67;;;;;;;-3.23;100.00;100755.09;5074795;28;20031;-86
2022/03/04 04:31:53;;;;;;;48.33;17.20;;;;;;;-3.27;100.00;100748.88;5074945;28;20036;-86
2022/03/04 04:34:18;;;;;;;51.13;16.40;;;;;;;-3.25;100.00;100747.19;5074828;28;20047;-85
2022/03/04 04:36:43;;;;;;;46.90;16.73;;;;;;;-3.23;100.00;100749.00;5075501;28;20028;-82
2022/03/04 04:39:08;;;;;;;49.28;16.58;;;;;;;-3.21;100.00;100747.31;5075537;28;20039;-88
2022/03/04 04:41:34;;;;;;;45.97;16.27;;;;;;;-3.26;100.00;100744.53;5074943;28;20035;-89
2022/03/04 04:44:00;;;;;;;48.88;16.90;;;;;;;-3.22;100.00;100740.34;5073414;28;20073;-86
2022/03/04 04:46:25;;;;;;;50.20;18.75;;;;;;;-3.22;100.00;100737.72;5074963;28;20085;-87
2022/03/04 04:48:51;;;;;;;50.20;16.63;;;;;;;-3.19;100.00;100737.78;5084728;28;20008;-88
2022/03/04 04:51:16;;;;;;;44.63;15.20;;;;;;;-3.23;100.00;100738.53;5094509;28;20021;-87
2022/03/04 04:53:42;;;;;;;44.88;15.70;;;;;;;-3.28;100.00;100736.66;5091550;28;20044;-89
2022/03/04 04:56:07;;;;;;;52.28;15.98;;;;;;;-3.23;100.00;100743.75;5093227;28;20068;-88
2022/03/04 04:58:33;;;;;;;47.10;14.75;;;;;;;-3.32;100.00;100742.59;5076031;28;20056;-85
2022/03/04 05:00:58;;;;;;;43.47;15.40;;;;;;;-3.30;100.00;100751.38;5075198;28;20016;-87
2022/03/04 05:03:25;;;;;;;47.10;14.82;;;;;;;-3.30;100.00;100748.75;5073405;28;20397;-86
2022/03/04 05:05:55;;;;;;;39.40;14.68;;;;;;;-3.21;100.00;100752.53;5073123;28;20110;-87
2022/03/04 05:08:21;;;;;;;41.75;14.93;;;;;;;-3.25;100.00;100749.81;5072995;28;20035;-88
2022/03/04 05:10:47;;;;;;;46.35;15.40;;;;;;;-3.20;100.00;100747.38;5073627;28;20036;-88
2022/03/04 05:13:13;;;;;;;48.38;15.95;;;;;;;-3.18;100.00;100747.41;5074671;28;20055;-87
2022/03/04 05:15:39;;;;;;;46.85;14.43;;;;;;;-3.13;100.00;100748.47;5073401;28;20165;-87
2022/03/04 05:18:04;;;;;;;47.33;14.52;;;;;;;-3.13;100.00;100743.25;5073265;28;20029;-87
2022/03/04 05:20:29;;;;;;;48.05;15.82;;;;;;;-3.17;100.00;100754.44;5073141;28;20028;-87
2022/03/04 05:22:55;;;;;;;41.95;16.55;;;;;;;-3.13;100.00;100756.31;5073735;28;20161;-88
2022/03/04 05:25:20;;;;;;;44.03;14.52;;;;;;;-3.16;100.00;100758.81;5072954;28;20047;-87
2022/03/04 05:27:45;;;;;;;49.42;14.88;;;;;;;-3.13;100.00;100761.53;5072779;28;20031;-86
2022/03/04 05:30:11;;;;;;;43.60;15.50;;;;;;;-3.10;100.00;100760.75;5072465;28;20024;-87
2022/03/04 05:32:37;;;;;;;43.42;15.02;;;;;;;-3.11;100.00;100759.84;5072912;28;20029;-86
2022/03/04 05:35:03;;;;;;;43.47;15.13;;;;;;;-3.16;100.00;100759.69;5074078;28;20441;-87
2022/03/04 05:37:28;;;;;;;49.38;14.07;;;;;;;-3.18;100.00;100769.22;5074233;28;20070;-88
2022/03/04 05:39:54;;;;;;;41.83;14.88;;;;;;;-3.20;100.00;100759.56;5072740;28;20021;-87
2022/03/04 05:42:19;;;;;;;42.17;14.32;;;;;;;-3.23;100.00;100756.81;5072672;28;20099;-89
2022/03/04 05:44:45;;;;;;;45.63;14.38;;;;;;;-3.20;100.00;100754.31;5072827;28;20024;-90
2022/03/04 05:47:10;;;;;;;42.83;15.30;;;;;;;-3.26;100.00;100753.28;5072369;28;20024;-89
2022/03/04 05:49:36;;;;;;;42.15;14.50;;;;;;;-3.17;100.00;100749.22;5073549;28;20016;-93
2022/03/04 05:52:01;;;;;;;48.42;15.35;;;;;;;-3.12;100.00;100750.25;5072741;28;20020;-89
2022/03/04 05:54:27;;;;;;;45.92;17.25;;;;;;;-3.18;100.00;100758.78;5072659;28;20481;-89
2022/03/04 05:56:52;;;;;;;41.58;14.07;;;;;;;-3.21;100.00;100758.66;5073674;28;20434;-89
2022/03/04 05:59:17;;;;;;;50.13;16.50;;;;;;;-3.19;100.00;100756.09;5072788;28;20024;-88
2022/03/04 06:01:43;;;;;;;43.50;15.52;;;;;;;-3.20;100.00;100764.78;5073402;28;20044;-86
2022/03/04 06:04:08;;;;;;;45.78;16.20;;;;;;;-3.16;100.00;100767.53;5073522;28;20477;-88
2022/03/04 06:06:34;;;;;;;39.97;15.63;;;;;;;-3.16;100.00;100782.31;5073985;28;20393;-88
2022/03/04 06:08:59;;;;;;;49.03;15.27;;;;;;;-3.16;100.00;100782.31;5073249;28;20069;-87
2022/03/04 06:11:25;;;;;;;43.92;14.80;;;;;;;-3.12;100.00;100789.44;5073360;28;20084;-88
2022/03/04 06:13:50;;;;;;;42.67;13.80;;;;;;;-3.13;100.00;100792.88;5072118;28;20119;-87
2022/03/04 06:16:15;;;;;;;46.00;14.90;;;;;;;-3.09;100.00;100794.75;5073477;28;20025;-86
2022/03/04 06:18:41;;;;;;;46.58;15.57;;;;;;;-3.09;100.00;100783.44;5073425;28;20044;-87
2022/03/04 06:21:06;;;;;;;39.72;15.73;;;;;;;-3.08;100.00;100793.94;5073350;28;20020;-87
2022/03/04 06:23:31;;;;;;;49.30;14.93;;;;;;;-2.99;100.00;100795.94;5071943;28;20065;-87
2022/03/04 06:26:00;;;;;;;39.90;15.40;;;;;;;-3.05;100.00;100796.66;5071930;28;20103;-85
2022/03/04 06:28:26;;;;;;;44.40;14.55;;;;;;;-3.05;100.00;100801.88;5073198;28;20115;-87
2022/03/04 06:30:52;;;;;;;44.47;14.98;;;;;;;-3.08;100.00;100799.16;5071842;28;20024;-87
2022/03/04 06:33:30;;;;;;;44.40;14.20;;;;;;;-3.07;100.00;100800.94;5072052;28;20454;-87
2022/03/04 06:35:58;;;;;;;42.88;14.02;;;;;;;-3.07;100.00;100797.44;5073372;28;20025;-87
2022/03/04 06:38:24;;;;;;;44.53;13.45;;;;;;;-3.01;100.00;100802.00;5072909;28;20377;-86
2022/03/04 06:40:50;;;;;;;42.30;14.20;;;;;;;-2.92;100.00;100799.69;5071886;28;20531;-87
2022/03/04 06:43:16;;;;;;;40.75;13.48;;;;;;;-2.90;100.00;100799.72;5073144;28;20417;-87
2022/03/04 06:45:42;;;;;;;40.75;14.00;;;;;;;-2.89;100.00;100801.50;5073292;28;20052;-87
2022/03/04 06:48:08;;;;;;;40.22;13.50;;;;;;;-2.93;100.00;100806.63;5072878;28;20028;-87
2022/03/04 06:50:33;;;;;;;42.88;13.68;;;;;;;-2.86;100.00;100806.84;5071655;28;20027;-86
2022/03/04 06:52:58;;;;;;;45.38;14.95;;;;;;;-2.89;100.00;100802.41;5073093;28;20097;-86
2022/03/04 06:55:24;;;;;;;41.03;13.80;;;;;;;-2.85;100.00;100799.03;5073310;28;20066;-87
2022/03/04 06:57:54;;;;;;;38.63;13.60;;;;;;;-2.85;100.00;100792.94;5073296;28;20021;-87
2022/03/04 07:00:24;;;;;;;37.15;13.80;;;;;;;-2.86;100.00;100791.16;5072946;28;20025;-87
2022/03/04 07:02:50;;;;;;;35.03;13.93;;;;;;;-2.83;100.00;100792.13;5071778;28;20021;-87
2022/03/04 07:05:15;;;;;;;39.30;12.82;;;;;;;-2.83;100.00;100799.09;5075426;28;20082;-87
2022/03/04 07:07:41;;;;;;;40.55;14.43;;;;;;;-2.82;100.00;100796.53;5076589;28;20016;-87
2022/03/04 07:10:07;;;;;;;33.17;12.15;;;;;;;-2.79;100.00;100802.69;5074972;28;20025;-87
2022/03/04 07:12:33;;;;;;;38.10;13.40;;;;;;;-2.78;100.00;100807.97;5074902;28;20040;-88
2022/03/04 07:14:58;;;;;;;37.42;13.20;;;;;;;-2.79;100.00;100803.59;5076064;28;20021;-87
2022/03/04 07:17:24;;;;;;;36.50;13.43;;;;;;;-2.89;100.00;100812.88;5076219;28;20469;-87
2022/03/04 07:19:49;;;;;;;40.38;13.35;;;;;;;-2.84;100.00;100811.28;5074981;28;20027;-88
2022/03/04 07:22:15;;;;;;;36.60;12.43;;;;;;;-2.88;100.00;100809.38;5074793;28;20020;-86
2022/03/04 07:24:41;;;;;;;35.88;12.75;;;;;;;-2.77;100.00;100811.47;5074553;28;20032;-87
2022/03/04 07:27:06;;;;;;;37.47;13.25;;;;;;;-2.83;100.00;100810.44;5076101;28;20024;-87
2022/03/04 07:29:32;;;;;;;34.45;11.90;;;;;;;-2.89;100.00;100817.19;5074613;28;20021;-86
2022/03/04 07:31:57;;;;;;;37.00;12.70;;;;;;;-2.93;100.00;100821.41;5074697;28;20078;-87
2022/03/04 07:34:23;;;;;;;32.80;11.55;;;;;;;-2.81;100.00;100816.59;5074477;28;20033;-87
2022/03/04 07:36:49;;;;;;;32.70;12.35;;;;;;;-2.85;100.00;100822.56;5075735;28;20028;-88
2022/03/04 07:39:14;;;;;;;39.22;12.82;;;;;;;-2.78;100.00;100815.81;5075920;28;20032;-88
2022/03/04 07:41:40;;;;;;;40.47;13.15;;;;;;;-2.67;100.00;100824.03;5074415;28;20025;-87
2022/03/04 07:44:06;;;;;;;40.95;13.00;;;;;;;-2.67;100.00;100813.56;5074358;28;20031;-87
2022/03/04 07:46:31;;;;;;;37.00;12.98;;;;;;;-2.60;100.00;100818.16;5074456;28;20036;-87
2022/03/04 07:48:57;;;;;;;33.60;12.57;;;;;;;-2.56;100.00;100823.50;5074223;28;20074;-87
2022/03/04 07:51:22;;;;;;;30.77;11.07;;;;;;;-2.54;100.00;100821.81;5075414;28;20031;-87
2022/03/04 07:53:48;;;;;;;32.88;11.90;;;;;;;-2.58;100.00;100826.94;5074441;28;20473;-87
2022/03/04 07:56:13;;;;;;;32.67;11.48;;;;;;;-2.60;100.00;100826.00;5075609;28;20032;-86
2022/03/04 07:58:38;;;;;;;30.92;11.75;;;;;;;-2.60;100.00;100826.00;5075624;28;20017;-87
2022/03/04 08:01:04;;;;;;;30.50;10.80;;;;;;;-2.54;100.00;100830.56;5075150;28;20032;-88
2022/03/04 08:03:29;;;;;;;28.13;10.55;;;;;;;-2.52;100.00;100825.34;5074342;28;20029;-85
2022/03/04 08:05:55;;;;;;;31.60;11.80;;;;;;;-2.46;100.00;100822.94;5075000;28;20024;-87
2022/03/04 08:08:20;;;;;;;31.40;11.45;;;;;;;-2.31;100.00;100827.78;5075059;28;20544;-87
2022/03/04 08:10:45;;;;;;;32.88;10.68;;;;;;;-2.30;100.00;100833.91;5075501;28;20032;-87
2022/03/04 08:13:11;;;;;;;33.15;11.32;;;;;;;-2.26;100.00;100833.16;5074058;28;20024;-87
2022/03/04 08:15:36;;;;;;;31.90;11.00;;;;;;;-2.21;100.00;100844.66;5073264;28;20448;-87
2022/03/04 08:18:02;;;;;;;30.55;11.13;;;;;;;-2.25;100.00;100817.53;5075200;28;20024;-86
2022/03/04 08:20:27;;;;;;;28.40;10.77;;;;;;;-2.15;100.00;100826.53;5074819;28;20052;-85
2022/03/04 08:22:54;;;;;;;29.15;10.90;;;;;;;-2.17;100.00;100825.63;5074757;28;20025;-86
2022/03/04 08:25:19;;;;;;;29.10;10.70;;;;;;;-2.15;100.00;100823.03;5075096;28;20024;-87
2022/03/04 08:27:44;;;;;;;30.08;10.25;;;;;;;-2.15;100.00;100828.28;5073509;28;20024;-85
2022/03/04 08:30:12;;;;;;;31.10;10.40;;;;;;;-1.97;100.00;100825.34;5074581;28;20020;-84
2022/03/04 08:32:38;;;;;;;26.45;10.80;;;;;;;-1.80;100.00;100830.16;5074800;28;20032;-87
2022/03/04 08:35:04;;;;;;;28.77;11.50;;;;;;;-1.76;100.00;100837.28;5074505;28;20448;-85
2022/03/04 08:37:30;;;;;;;26.17;9.45;;;;;;;-1.80;100.00;100832.78;5073237;28;20021;-86
2022/03/04 08:39:55;;;;;;;28.33;10.25;;;;;;;-1.52;100.00;100836.22;5073444;28;20016;-86
2022/03/04 08:42:20;;;;;;;30.83;11.32;;;;;;;-1.38;100.00;100833.09;5074945;28;20408;-87
2022/03/04 08:44:46;;;;;;;25.63;10.05;;;;;;;-1.21;100.00;100832.72;5073124;28;20029;-86
2022/03/04 08:47:11;;;;;;;30.73;10.95;;;;;;;-1.07;100.00;100833.06;5074642;28;20028;-87
2022/03/04 08:49:36;;;;;;;29.42;11.35;;;;;;;-1.04;100.00;100834.03;5073464;28;20066;-87
2022/03/04 08:52:02;;;;;;;29.08;10.10;;;;;;;-0.91;100.00;100834.38;5074137;28;20028;-86
2022/03/04 08:54:27;;;;;;;27.17;10.65;;;;;;;-0.84;100.00;100833.66;5074133;28;20142;-86
2022/03/04 08:56:53;;;;;;;26.85;9.82;;;;;;;-0.65;100.00;100836.78;5073258;28;20082;-87
2022/03/04 08:59:18;;;;;;;24.13;9.93;;;;;;;-0.40;100.00;100841.72;5074683;28;20549;-86
2022/03/04 09:01:43;;;;;;;24.55;10.48;;;;;;;-0.48;100.00;100845.06;5074668;28;20032;-86
2022/03/04 09:04:13;;;;;;;29.40;10.93;;;;;;;-0.37;100.00;100842.69;5073200;28;20020;-85
2022/03/04 09:06:39;;;;;;;26.35;9.82;;;;;;;-0.28;100.00;100851.63;5072715;28;20023;-86
2022/03/04 09:09:04;;;;;;;24.52;9.70;;;;;;;0.05;100.00;100841.91;5072829;28;20029;-86
2022/03/04 09:11:30;;;;;;;28.65;11.57;;;;;;;0.16;100.00;100842.13;5074168;28;20028;-87
2022/03/04 09:13:55;;;;;;;26.98;11.27;;;;;;;0.04;100.00;100843.63;5072550;28;20158;-87
2022/03/04 09:16:20;;;;;;;26.95;11.02;;;;;;;0.32;100.00;100843.34;5074078;28;20069;-86
2022/03/04 09:18:45;;;;;;;23.60;10.38;;;;;;;0.64;100.00;100837.88;5074102;28;20051;-87
2022/03/04 09:21:11;;;;;;;23.73;10.40;;;;;;;0.92;100.00;100837.53;5072490;28;20039;-86
2022/03/04 09:23:36;;;;;;;24.42;10.93;;;;;;;1.02;100.00;100853.47;5073846;28;20366;-87
2022/03/04 09:26:01;;;;;;;27.27;10.98;;;;;;;1.13;100.00;100853.66;5072254;28;20389;-87
2022/03/04 09:28:27;;;;;;;24.83;11.68;;;;;;;0.81;100.00;100839.94;5073251;28;20021;-87
2022/03/04 09:30:52;;;;;;;22.10;10.38;;;;;;;0.44;100.00;100846.22;5073907;28;20153;-87
2022/03/04 09:33:17;;;;;;;26.92;11.88;;;;;;;0.51;100.00;100839.38;5073561;28;20035;-86
2022/03/04 09:35:42;;;;;;;24.98;10.95;;;;;;;0.55;100.00;100835.94;5072286;28;20025;-87
2022/03/04 09:38:08;;;;;;;23.85;10.80;;;;;;;1.00;100.00;100846.44;5073490;28;20020;-86
2022/03/04 09:40:33;;;;;;;23.48;10.80;;;;;;;1.17;100.00;100839.69;5074116;28;20511;-87
2022/03/04 09:43:00;;;;;;;24.70;11.52;;;;;;;1.26;97.98;100833.72;5072234;28;20023;-87
2022/03/04 09:45:25;;;;;;;27.00;11.68;;;;;;;1.69;99.23;100843.19;5073543;28;20024;-87
2022/03/04 09:47:51;;;;;;;23.88;10.57;;;;;;;1.82;95.49;100844.25;5074207;28;20431;-87
2022/03/04 09:50:16;;;;;;;24.35;10.45;;;;;;;1.82;96.24;100855.69;5073359;28;20024;-87
2022/03/04 09:52:43;;;;;;;22.48;10.55;;;;;;;2.38;93.09;100842.41;5073494;28;20028;-87
2022/03/04 09:55:09;;;;;;;24.52;10.27;;;;;;;2.43;92.23;100843.34;5072138;28;20033;-87
2022/03/04 09:57:35;;;;;;;25.05;10.52;;;;;;;2.76;91.39;100843.72;5072185;28;20032;-87
2022/03/04 10:00:00;;;;;;;19.88;10.60;;;;;;;3.07;88.63;100850.19;5072395;28;20017;-87
2022/03/04 10:02:25;;;;;;;23.33;10.95;;;;;;;3.05;87.68;100846.66;5073610;28;20032;-88
2022/03/04 10:04:58;;;;;;;21.00;10.85;;;;;;;2.72;89.39;100841.03;5073062;28;20031;-88
2022/03/04 10:07:24;;;;;;;21.27;10.48;;;;;;;2.88;89.22;100842.13;5072049;28;20477;-87
2022/03/04 10:09:49;;;;;;;22.20;10.90;;;;;;;3.03;87.95;100845.78;5071907;28;20029;-87
2022/03/04 10:12:18;;;;;;;19.95;9.80;;;;;;;3.05;87.84;100841.38;5072222;28;20059;-87
2022/03/04 10:15:04;;;;;;;19.75;10.45;;;;;;;3.09;87.09;100843.22;5072013;28;20569;-87
2022/03/04 10:17:33;;;;;;;18.80;9.95;;;;;;;3.19;86.21;100842.44;5073420;28;20112;-88
2022/03/04 10:20:04;;;;;;;18.30;9.90;;;;;;;3.34;83.98;100846.06;5072442;28;20119;-87
2022/03/04 10:22:35;;;;;;;20.35;10.52;;;;;;;3.62;84.24;100842.78;5073402;28;20071;-87
2022/03/04 10:25:01;;;;;;;21.15;10.55;;;;;;;3.59;84.29;100843.63;5071877;28;20397;-86
2022/03/04 10:27:34;;;;;;;19.85;10.32;;;;;;;3.41;84.09;100839.97;5073306;28;20473;-87
2022/03/04 10:30:02;;;;;;;19.35;10.43;;;;;;;3.75;84.11;100833.19;5071708;28;20074;-87
2022/03/04 10:32:28;;;;;;;17.02;9.55;;;;;;;3.57;82.56;100840.09;5072876;28;20032;-87
2022/03/04 10:35:04;;;;;;;19.27;9.70;;;;;;;3.84;83.75;100835.88;5073408;28;20021;-88
2022/03/04 10:37:54;;;;;;;19.23;9.68;;;;;;;3.85;82.49;100842.94;5072915;28;20024;-88
2022/03/04 10:40:26;;;;;;;18.45;9.80;;;;;;;3.90;81.70;100841.22;5077121;28;20016;-87
2022/03/04 10:42:58;;;;;;;18.17;10.10;;;;;;;3.98;84.54;100838.63;5077468;28;20073;-87
2022/03/04 10:45:35;;;;;;;21.42;10.15;;;;;;;4.30;81.50;100844.97;5077355;28;20032;-87
2022/03/04 10:48:07;;;;;;;19.75;10.05;;;;;;;3.94;83.36;100844.78;5076191;28;20063;-87
2022/03/04 10:50:48;;;;;;;19.75;9.43;;;;;;;4.28;78.95;100852.00;5076941;28;20044;-87
2022/03/04 10:53:16;;;;;;;19.75;10.75;;;;;;;4.47;81.45;100842.41;5075371;28;20061;-86
2022/03/04 10:55:47;;;;;;;20.02;10.52;;;;;;;4.72;79.29;100843.34;5075977;28;20036;-87
2022/03/04 10:58:31;;;;;;;20.40;10.32;;;;;;;4.36;78.38;100837.06;5075162;28;20060;-86
2022/03/04 11:00:59;;;;;;;16.75;9.57;;;;;;;4.45;78.06;100840.63;5076642;28;20024;-87